Terminal Aerodrome Forecast
Issued by NWS

Home | Current Version | Previous Version | Text Only | Print | Product List | Glossary On
Versions: 1 2 3 4 5 6 7 8 9 10 11 12
000
FTUS43 KJKL 282338
TAFSME
TAF
KSME 282338Z 2900/2924 VRB06KT P6SM SCT050 BKN090
     FM290400 18009KT P6SM BKN100 WS020/20040KT
     FM290800 19008KT P6SM FEW050 SCT150=

USA.gov is the U.S. government's official web portal to all federal, state and local government web resources and services.